Time;durP1;ratioP1;P1;durP2;ratioP2;P2;SDS_P1;SDS_P2;PMS_P1;PMS_P2;Temp;Humidity;BMP_temperature;BMP_pressure;BME280_temperature;BME280_humidity;BME280_pressure;Samples;Min_cycle;Max_cycle;Signal;HPM_P1;HPM_P2
2021/11/04 00:00:45;;;;;;;48.87;45.20;;;;;;;8.62;100.00;101113.84;1892646;74;86123;-70
2021/11/04 00:06:09;;;;;;;48.67;45.17;;;;;;;8.70;100.00;101113.34;1891508;74;39793;-71
2021/11/04 00:11:33;;;;;;;49.27;45.57;;;;;;;8.77;100.00;101119.47;1866480;74;39523;-73
2021/11/04 00:16:57;;;;;;;50.93;47.03;;;;;;;8.69;100.00;101118.59;1886968;73;86210;-71
2021/11/04 00:22:21;;;;;;;50.30;47.00;;;;;;;8.48;100.00;101123.15;1870070;74;39566;-69
2021/11/04 00:27:51;;;;;;;50.30;46.70;;;;;;;8.34;100.00;101121.95;1836481;77;86467;-72
2021/11/04 00:33:16;;;;;;;48.80;45.40;;;;;;;8.29;100.00;101127.43;1889290;74;39549;-71
2021/11/04 00:38:45;;;;;;;48.50;44.80;;;;;;;8.48;100.00;101122.31;1901900;73;85344;-69
2021/11/04 00:44:06;;;;;;;49.13;45.47;;;;;;;8.31;100.00;101123.00;1918554;74;39614;-71
2021/11/04 00:49:31;;;;;;;49.63;46.07;;;;;;;8.29;100.00;101121.03;1880250;74;39493;-71
2021/11/04 00:55:13;;;;;;;47.70;44.43;;;;;;;8.27;100.00;101112.98;1916494;74;39734;-71
2021/11/04 01:00:38;;;;;;;48.63;45.13;;;;;;;8.22;100.00;101119.30;1901845;75;86134;-74
2021/11/04 01:06:02;;;;;;;46.87;43.30;;;;;;;8.23;100.00;101116.83;1876833;74;39438;-70
2021/11/04 01:11:26;;;;;;;50.97;47.47;;;;;;;8.21;100.00;101125.12;1914229;73;39669;-72
2021/11/04 01:16:50;;;;;;;49.23;45.73;;;;;;;7.98;100.00;101122.13;1839729;77;86492;-70
2021/11/04 01:22:15;;;;;;;48.73;45.33;;;;;;;8.09;100.00;101122.49;1914626;74;39483;-72
2021/11/04 01:27:38;;;;;;;50.00;46.60;;;;;;;8.14;100.00;101128.08;1901861;75;86327;-71
2021/11/04 01:33:04;;;;;;;48.00;44.50;;;;;;;8.03;100.00;101123.56;1918897;74;39576;-73
2021/11/04 01:38:28;;;;;;;49.87;46.33;;;;;;;8.10;100.00;101125.56;1873554;74;39485;-71
2021/11/04 01:43:53;;;;;;;49.20;45.80;;;;;;;8.03;100.00;101123.56;1825307;76;86461;-72
2021/11/04 01:49:18;;;;;;;48.80;45.30;;;;;;;8.00;100.00;101121.87;1915771;74;39442;-69
2021/11/04 01:54:42;;;;;;;49.77;46.57;;;;;;;8.01;100.00;101132.66;1939322;73;86456;-69
2021/11/04 02:00:10;;;;;;;49.07;45.57;;;;;;;7.98;100.00;101134.57;1918088;74;39695;-71
2021/11/04 02:05:41;;;;;;;50.23;46.50;;;;;;;7.96;100.00;101143.66;1901911;73;86476;-73
2021/11/04 02:11:13;;;;;;;50.93;47.30;;;;;;;7.87;100.00;101142.48;1891836;74;39410;-70
2021/11/04 02:16:44;;;;;;;51.67;48.30;;;;;;;7.86;100.00;101151.03;1931475;72;86254;-71
2021/11/04 02:19:22;;;;;;;49.85;46.25;;;;;;;7.79;100.00;101155.36;1845755;75;936732;-68
2021/11/04 02:24:50;;;;;;;49.53;45.93;;;;;;;7.79;100.00;101156.20;1891151;74;86183;-73
2021/11/04 02:30:17;;;;;;;50.83;47.43;;;;;;;7.69;100.00;101142.83;1916198;74;39587;-69
2021/11/04 02:35:48;;;;;;;49.80;46.20;;;;;;;7.74;100.00;101147.04;1901824;75;86598;-71
2021/11/04 02:41:10;;;;;;;53.10;49.50;;;;;;;7.64;100.00;101152.44;1882273;74;39589;-69
2021/11/04 02:46:36;;;;;;;50.03;46.53;;;;;;;7.57;100.00;101154.58;1901776;75;86293;-71
2021/11/04 02:52:03;;;;;;;50.90;47.43;;;;;;;7.56;100.00;101157.05;1901953;74;86665;-71
2021/11/04 02:57:28;;;;;;;52.90;49.20;;;;;;;7.48;100.00;101159.72;1913978;74;39541;-73
2021/11/04 03:02:52;;;;;;;51.93;48.43;;;;;;;7.52;100.00;101155.34;1751691;80;85480;-72
2021/11/04 03:08:16;;;;;;;51.83;48.23;;;;;;;7.49;100.00;101153.62;1874056;74;39691;-69
2021/11/04 03:13:41;;;;;;;49.70;46.40;;;;;;;7.39;100.00;101146.06;1901899;75;86087;-70
2021/11/04 03:19:09;;;;;;;50.50;47.10;;;;;;;7.28;100.00;101153.37;1918442;74;39589;-73
2021/11/04 03:24:33;;;;;;;50.57;47.10;;;;;;;7.32;100.00;101155.91;1913358;74;39723;-71
2021/11/04 03:30:01;;;;;;;49.90;46.60;;;;;;;7.29;100.00;101165.26;1863303;77;86436;-73
2021/11/04 03:35:28;;;;;;;49.00;45.90;;;;;;;7.32;100.00;101173.03;1914358;74;39621;-71
2021/11/04 03:40:56;;;;;;;48.40;45.40;;;;;;;7.43;100.00;101180.38;1861988;76;86024;-68
2021/11/04 03:46:20;;;;;;;48.20;45.20;;;;;;;7.50;100.00;101178.80;1915943;74;39680;-71
2021/11/04 03:51:47;;;;;;;49.87;46.50;;;;;;;7.38;100.00;101178.92;1905314;74;86177;-70
2021/11/04 03:57:14;;;;;;;49.30;46.17;;;;;;;7.37;100.00;101186.92;1917060;74;39464;-72
2021/11/04 04:02:48;;;;;;;46.23;43.33;;;;;;;7.31;100.00;101184.66;1936846;73;86498;-73
2021/11/04 04:08:21;;;;;;;48.43;45.33;;;;;;;7.27;100.00;101188.99;1915243;74;39681;-70
2021/11/04 04:13:45;;;;;;;46.53;43.53;;;;;;;7.24;100.00;101201.94;1893709;74;86467;-71
2021/11/04 04:19:09;;;;;;;47.20;44.20;;;;;;;7.19;100.00;101193.58;1917620;74;39612;-69
2021/11/04 04:24:52;;;;;;;46.70;43.67;;;;;;;7.14;100.00;101207.88;1898568;74;86697;-73
2021/11/04 04:30:35;;;;;;;44.70;41.73;;;;;;;7.15;100.00;101208.15;1879826;74;86582;-72
2021/11/04 04:36:00;;;;;;;47.20;44.13;;;;;;;7.10;100.00;101219.95;1898813;74;86512;-70
2021/11/04 04:41:23;;;;;;;46.73;43.73;;;;;;;7.09;100.00;101228.52;1914881;74;39815;-70
2021/11/04 04:46:47;;;;;;;47.27;44.37;;;;;;;7.10;100.00;101217.77;1892755;74;86557;-70
2021/11/04 04:52:11;;;;;;;46.17;43.27;;;;;;;6.98;100.00;101226.67;1890167;74;39756;-68
2021/11/04 04:57:36;;;;;;;48.40;45.20;;;;;;;7.01;100.00;101229.79;1901985;73;86146;-71
2021/11/04 05:03:05;;;;;;;46.63;43.50;;;;;;;7.04;100.00;101241.70;1918932;74;39460;-70
2021/11/04 05:08:29;;;;;;;46.47;43.47;;;;;;;7.07;100.00;101245.33;1913767;73;39603;-73
2021/11/04 05:13:54;;;;;;;50.53;47.23;;;;;;;6.97;100.00;101240.21;1943447;71;86640;-73
2021/11/04 05:19:18;;;;;;;49.33;46.13;;;;;;;6.93;100.00;101242.61;1915699;74;39799;-73
2021/11/04 05:24:41;;;;;;;49.10;45.90;;;;;;;7.01;100.00;101244.98;1901695;75;86606;-73
2021/11/04 05:30:07;;;;;;;47.13;44.03;;;;;;;7.03;100.00;101259.36;1918562;74;39496;-70
2021/11/04 05:35:50;;;;;;;48.07;44.97;;;;;;;7.00;100.00;101259.03;1933849;73;85799;-72
2021/11/04 05:41:15;;;;;;;48.10;45.00;;;;;;;6.90;100.00;101265.75;1916380;74;39577;-72
2021/11/04 05:46:39;;;;;;;49.17;46.07;;;;;;;6.89;100.00;101271.81;1901802;75;86414;-72
2021/11/04 05:52:05;;;;;;;49.73;46.43;;;;;;;6.92;100.00;101264.44;1918797;74;39642;-73
2021/11/04 05:57:29;;;;;;;47.87;44.87;;;;;;;7.03;100.00;101267.64;1913907;73;39520;-71
2021/11/04 06:02:54;;;;;;;48.60;45.33;;;;;;;7.03;100.00;101267.64;1954716;70;86581;-73
2021/11/04 06:08:18;;;;;;;52.27;48.87;;;;;;;7.00;100.00;101268.70;1873558;74;39786;-72
2021/11/04 06:13:42;;;;;;;51.13;47.83;;;;;;;7.02;100.00;101272.03;1901969;74;86724;-70
2021/11/04 06:19:06;;;;;;;51.67;48.50;;;;;;;6.96;100.00;101275.27;1879380;74;39498;-69
2021/11/04 06:24:29;;;;;;;51.30;48.20;;;;;;;6.92;100.00;101275.48;1913860;73;39517;-73
2021/11/04 06:29:54;;;;;;;51.07;47.87;;;;;;;6.91;100.00;101279.86;1941372;73;86186;-72
2021/11/04 06:35:18;;;;;;;50.87;47.87;;;;;;;7.00;100.00;101283.34;1915997;74;39608;-73
2021/11/04 06:40:43;;;;;;;50.13;47.23;;;;;;;7.03;100.00;101293.05;1939694;73;86224;-74
2021/11/04 06:46:12;;;;;;;49.70;46.80;;;;;;;7.08;100.00;101297.27;1917152;74;39612;-71
2021/11/04 06:51:41;;;;;;;49.00;46.20;;;;;;;7.16;100.00;101298.23;1901624;74;86265;-71
2021/11/04 06:57:11;;;;;;;50.43;47.43;;;;;;;7.13;100.00;101302.89;1918283;74;39599;-72
2021/11/04 07:02:39;;;;;;;50.57;47.77;;;;;;;7.01;100.00;101321.47;1901860;75;86684;-72
2021/11/04 07:08:05;;;;;;;47.57;44.80;;;;;;;7.04;100.00;101320.42;1892859;74;39393;-73
2021/11/04 07:13:32;;;;;;;48.10;45.40;;;;;;;7.11;100.00;101325.22;1913649;74;39568;-71
2021/11/04 07:18:59;;;;;;;47.37;44.77;;;;;;;7.17;100.00;101337.20;1821116;77;86344;-72
2021/11/04 07:24:27;;;;;;;49.90;47.10;;;;;;;7.27;100.00;101339.58;1914871;74;39790;-73
2021/11/04 07:32:39;;;;;;;48.77;45.93;;;;;;;7.33;100.00;101359.85;1915251;75;86581;-73
2021/11/04 07:35:10;;;;;;;45.73;43.00;;;;;;;7.30;100.00;101365.89;1866510;76;934833;-73
2021/11/04 07:37:42;;;;;;;47.27;44.47;;;;;;;7.29;100.00;101369.19;1866717;76;938716;-73
2021/11/04 07:40:15;;;;;;;44.30;41.50;;;;;;;7.31;100.00;101371.17;1854487;76;938636;-70
2021/11/04 07:42:46;;;;;;;45.03;42.43;;;;;;;7.37;100.00;101377.60;1866892;76;938660;-70
2021/11/04 07:45:16;;;;;;;47.62;44.93;;;;;;;7.44;100.00;101382.44;1854406;76;938867;-70
2021/11/04 07:47:48;;;;;;;44.10;41.40;;;;;;;7.47;100.00;101385.23;1866604;76;938963;-74
2021/11/04 07:50:20;;;;;;;46.30;43.40;;;;;;;7.46;100.00;101392.68;1854012;76;938619;-72
2021/11/04 07:52:51;;;;;;;43.47;40.67;;;;;;;7.43;100.00;101396.50;1866529;76;938682;-73
2021/11/04 07:55:21;;;;;;;46.85;44.05;;;;;;;7.42;100.00;101399.80;1854444;76;938664;-73
2021/11/04 07:57:51;;;;;;;48.17;45.27;;;;;;;7.46;100.00;101398.75;1866661;76;938644;-72
2021/11/04 08:00:24;;;;;;;47.00;44.00;;;;;;;7.44;100.00;101405.09;1816366;77;938637;-73
2021/11/04 08:02:53;;;;;;;44.57;41.87;;;;;;;7.55;100.00;101413.83;1831199;77;938703;-71
2021/11/04 08:05:24;;;;;;;45.78;43.08;;;;;;;7.53;100.00;101414.64;1819234;77;938690;-72
2021/11/04 08:07:55;;;;;;;46.63;43.80;;;;;;;7.56;100.00;101412.75;1831065;77;938552;-70
2021/11/04 08:10:25;;;;;;;45.10;42.30;;;;;;;7.53;100.00;101408.55;1769811;78;938794;-73
2021/11/04 08:12:57;;;;;;;42.37;39.57;;;;;;;7.54;100.00;101414.91;1806677;78;936985;-71
2021/11/04 08:15:26;;;;;;;44.33;41.50;;;;;;;7.63;100.00;101416.17;1807733;78;937671;-70
2021/11/04 08:17:56;;;;;;;43.93;41.13;;;;;;;7.68;100.00;101416.26;1831085;77;936733;-70
2021/11/04 08:20:27;;;;;;;43.28;40.50;;;;;;;7.74;100.00;101415.27;1819239;77;938778;-73
2021/11/04 08:25:51;;;;;;;44.27;41.37;;;;;;;7.93;100.00;101416.64;1777329;80;86378;-71
2021/11/04 08:31:15;;;;;;;43.40;40.60;;;;;;;7.94;100.00;101417.48;1916010;74;39754;-72
2021/11/04 08:36:39;;;;;;;44.20;41.23;;;;;;;8.07;100.00;101426.81;1901948;75;85547;-74
2021/11/04 08:42:06;;;;;;;43.30;40.47;;;;;;;8.20;100.00;101425.06;1892536;74;39491;-71
2021/11/04 08:47:29;;;;;;;43.10;40.50;;;;;;;8.31;100.00;101418.59;1913572;74;39577;-72
2021/11/04 08:53:04;;;;;;;42.47;39.77;;;;;;;8.36;100.00;101426.13;1784970;79;86093;-70
2021/11/04 08:58:28;;;;;;;42.47;39.80;;;;;;;8.49;100.00;101433.52;1913844;74;39608;-74
2021/11/04 09:03:54;;;;;;;42.67;39.87;;;;;;;8.59;100.00;101430.89;1777359;79;85606;-73
2021/11/04 09:09:18;;;;;;;42.13;39.43;;;;;;;8.68;100.00;101446.50;1915643;73;39509;-71
2021/11/04 09:14:44;;;;;;;42.60;39.80;;;;;;;8.82;100.00;101448.30;1901779;75;85451;-73
2021/11/04 09:20:11;;;;;;;40.83;38.13;;;;;;;8.83;100.00;101448.06;1918123;74;39393;-70
2021/11/04 09:25:34;;;;;;;40.53;37.90;;;;;;;9.02;100.00;101451.33;1866204;74;39962;-73
2021/11/04 09:30:59;;;;;;;41.90;39.30;;;;;;;9.21;100.00;101461.48;1825338;77;86446;-70
2021/11/04 09:36:25;;;;;;;44.60;41.90;;;;;;;9.33;100.00;101462.16;1914913;74;39557;-73
2021/11/04 09:41:50;;;;;;;45.37;42.53;;;;;;;9.28;100.00;101469.07;1904707;74;86525;-71
2021/11/04 09:47:19;;;;;;;43.97;41.37;;;;;;;9.12;100.00;101472.20;1916255;74;39568;-73
2021/11/04 09:52:46;;;;;;;45.77;43.07;;;;;;;9.22;100.00;101474.26;1892978;74;86699;-71
2021/11/04 09:58:11;;;;;;;44.07;41.40;;;;;;;9.27;100.00;101480.70;1890300;74;40307;-73
2021/11/04 10:03:35;;;;;;;43.03;40.30;;;;;;;9.21;100.00;101480.34;1872238;75;86622;-71
2021/11/04 10:09:03;;;;;;;45.33;42.73;;;;;;;9.24;100.00;101490.91;1885163;74;86296;-70
2021/11/04 10:14:31;;;;;;;43.77;40.97;;;;;;;9.13;100.00;101498.83;1873908;74;39493;-70
2021/11/04 10:19:56;;;;;;;42.53;39.80;;;;;;;9.26;100.00;101507.28;1943201;70;86140;-74
2021/11/04 10:25:26;;;;;;;41.30;38.70;;;;;;;9.41;100.00;101519.95;1915541;74;39496;-69
2021/11/04 10:30:53;;;;;;;45.83;42.70;;;;;;;9.30;100.00;101529.23;1904544;74;86389;-72
2021/11/04 10:36:26;;;;;;;43.93;41.13;;;;;;;9.32;100.00;101545.08;1914907;74;39515;-73
2021/11/04 10:41:55;;;;;;;43.23;40.53;;;;;;;9.37;100.00;101543.75;1825274;78;86287;-72
2021/11/04 10:47:21;;;;;;;43.30;40.50;;;;;;;9.42;100.00;101542.39;1915580;74;39634;-73
2021/11/04 10:52:45;;;;;;;42.57;40.07;;;;;;;9.46;100.00;101551.86;1904005;74;86046;-72
2021/11/04 10:58:27;;;;;;;44.13;41.23;;;;;;;9.40;100.00;101552.92;1917372;73;39512;-72
2021/11/04 11:03:55;;;;;;;43.23;40.33;;;;;;;9.49;100.00;101556.91;1825205;78;86468;-73
2021/11/04 11:09:21;;;;;;;43.53;40.57;;;;;;;9.40;100.00;101565.40;1888424;74;39570;-70
2021/11/04 11:14:48;;;;;;;41.73;39.20;;;;;;;9.45;100.00;101561.30;1907051;74;86447;-70
2021/11/04 11:20:13;;;;;;;42.00;39.27;;;;;;;9.57;100.00;101568.38;1916722;74;39559;-70
2021/11/04 11:25:38;;;;;;;41.43;38.53;;;;;;;9.58;100.00;101567.83;1901948;74;86398;-70
2021/11/04 11:31:18;;;;;;;41.00;38.37;;;;;;;9.66;100.00;101575.67;1919144;74;39464;-72
2021/11/04 11:37:05;;;;;;;40.90;38.30;;;;;;;9.86;100.00;101582.81;1892652;74;86034;-71
2021/11/04 11:42:39;;;;;;;40.63;38.23;;;;;;;9.81;100.00;101576.36;1901513;73;86422;-72
2021/11/04 11:48:19;;;;;;;41.60;38.90;;;;;;;9.93;100.00;101578.42;1918060;74;39755;-69
2021/11/04 11:53:49;;;;;;;39.10;36.60;;;;;;;9.97;100.00;101587.89;1892764;74;86679;-71
2021/11/04 11:59:22;;;;;;;39.27;36.57;;;;;;;10.12;100.00;101578.33;1915560;74;39509;-72
2021/11/04 12:04:46;;;;;;;39.13;36.73;;;;;;;10.19;100.00;101578.97;1891855;74;86343;-70
2021/11/04 12:13:40;;;;;;;41.10;38.60;;;;;;;10.23;100.00;101582.05;1994077;69;39638;-70
2021/11/04 12:19:10;;;;;;;37.40;35.10;;;;;;;10.27;100.00;101581.83;1918259;74;39538;-71
2021/11/04 12:24:33;;;;;;;39.50;37.00;;;;;;;10.31;100.00;101579.61;1913180;74;39496;-71
2021/11/04 12:30:23;;;;;;;38.33;35.97;;;;;;;10.34;100.00;101583.82;1918526;74;39454;-71
2021/11/04 12:35:57;;;;;;;41.63;39.03;;;;;;;10.36;100.00;101592.70;1781284;79;86607;-72
2021/11/04 12:41:33;;;;;;;38.80;36.30;;;;;;;10.28;100.00;101584.31;1913269;74;39921;-71
2021/11/04 12:46:58;;;;;;;37.30;35.00;;;;;;;10.35;100.00;101591.90;1899380;74;86754;-72
2021/11/04 12:52:26;;;;;;;35.77;33.57;;;;;;;10.41;100.00;101601.08;1914902;74;39582;-72
2021/11/04 12:57:51;;;;;;;35.87;33.87;;;;;;;10.41;100.00;101603.31;1777583;79;85436;-72
2021/11/04 13:03:15;;;;;;;37.80;35.40;;;;;;;10.42;100.00;101610.55;1916255;74;39637;-70
2021/11/04 13:08:39;;;;;;;36.53;34.27;;;;;;;10.41;100.00;101613.58;1901846;75;85710;-72
2021/11/04 13:14:14;;;;;;;36.70;34.67;;;;;;;10.47;100.00;101613.92;1916807;74;39599;-71
2021/11/04 13:19:39;;;;;;;36.07;33.90;;;;;;;10.48;100.00;101617.80;1901707;75;86444;-69
2021/11/04 13:25:03;;;;;;;35.33;33.23;;;;;;;10.50;100.00;101617.55;1889246;74;86405;-72
2021/11/04 13:30:38;;;;;;;35.10;33.00;;;;;;;10.47;100.00;101625.03;1885979;74;39623;-72
2021/11/04 13:36:04;;;;;;;36.33;34.13;;;;;;;10.46;100.00;101627.52;1893097;74;39570;-72
2021/11/04 13:41:29;;;;;;;34.50;32.47;;;;;;;10.43;100.00;101623.89;1914173;74;39600;-69
2021/11/04 13:46:55;;;;;;;34.57;32.47;;;;;;;10.43;100.00;101633.06;1825304;78;86150;-70
2021/11/04 13:52:26;;;;;;;32.47;30.53;;;;;;;10.44;100.00;101629.70;1915396;74;39547;-70
2021/11/04 13:57:52;;;;;;;32.23;30.17;;;;;;;10.38;100.00;101635.80;1890212;74;85575;-71
2021/11/04 14:03:20;;;;;;;34.87;32.60;;;;;;;10.38;100.00;101640.50;1915395;74;39672;-72
2021/11/04 14:08:51;;;;;;;34.10;32.10;;;;;;;10.40;100.00;101624.39;1777279;79;86831;-71
2021/11/04 14:14:19;;;;;;;35.60;33.50;;;;;;;10.46;100.00;101628.91;1915611;74;39601;-70
2021/11/04 14:19:44;;;;;;;33.57;31.57;;;;;;;10.42;100.00;101638.88;1880265;74;86244;-72
2021/11/04 14:25:11;;;;;;;33.33;31.37;;;;;;;10.32;100.00;101637.38;1918241;74;39498;-69
2021/11/04 14:30:46;;;;;;;35.00;33.00;;;;;;;10.33;100.00;101648.23;1892039;74;86355;-70
2021/11/04 14:36:10;;;;;;;31.07;29.27;;;;;;;10.31;100.00;101660.73;1882009;74;39525;-70
2021/11/04 14:41:35;;;;;;;33.27;31.20;;;;;;;10.56;100.00;101667.05;1871924;75;86862;-70
2021/11/04 14:47:00;;;;;;;33.53;31.33;;;;;;;10.50;100.00;101673.94;1952305;71;86431;-70
2021/11/04 14:52:26;;;;;;;32.83;30.83;;;;;;;10.52;100.00;101664.52;1863491;74;39608;-70
2021/11/04 14:57:50;;;;;;;32.50;30.30;;;;;;;10.47;100.00;101675.03;1890251;74;86611;-70
2021/11/04 15:03:14;;;;;;;30.13;28.23;;;;;;;10.50;100.00;101684.21;1916393;74;39762;-71
2021/11/04 15:08:38;;;;;;;30.47;28.57;;;;;;;10.50;100.00;101691.16;1901975;75;86265;-70
2021/11/04 15:14:02;;;;;;;31.30;29.50;;;;;;;10.49;100.00;101701.97;1893233;74;39665;-71
2021/11/04 15:19:27;;;;;;;30.50;28.60;;;;;;;10.46;100.00;101704.73;1914194;73;39634;-70
2021/11/04 15:24:56;;;;;;;32.03;30.20;;;;;;;10.43;100.00;101706.66;1785106;79;85742;-70
2021/11/04 15:30:20;;;;;;;36.63;34.53;;;;;;;10.34;100.00;101708.79;1877817;74;39503;-71
2021/11/04 15:35:44;;;;;;;31.77;29.97;;;;;;;10.35;100.00;101723.81;1904415;74;85520;-72
2021/11/04 15:41:08;;;;;;;33.27;31.27;;;;;;;10.34;100.00;101741.56;1918280;74;39539;-70
2021/11/04 15:46:32;;;;;;;32.13;30.23;;;;;;;10.31;100.00;101751.78;1880293;74;39605;-72
2021/11/04 15:51:57;;;;;;;33.07;31.17;;;;;;;10.20;100.00;101757.50;1902345;74;86122;-71
2021/11/04 15:57:21;;;;;;;34.27;32.07;;;;;;;10.19;100.00;101762.20;1877001;74;39597;-69
2021/11/04 16:02:45;;;;;;;31.73;29.83;;;;;;;10.17;100.00;101767.75;1892524;74;86333;-69
2021/11/04 16:08:10;;;;;;;32.53;30.60;;;;;;;10.12;100.00;101774.59;1917372;74;39594;-72
2021/11/04 16:13:33;;;;;;;34.73;32.63;;;;;;;10.11;100.00;101784.85;1912691;72;39673;-72
2021/11/04 16:18:57;;;;;;;33.00;31.00;;;;;;;9.99;100.00;101803.04;1887088;74;85676;-72
2021/11/04 16:24:21;;;;;;;34.93;32.83;;;;;;;9.97;100.00;101803.83;1867186;74;39703;-72
2021/11/04 16:29:45;;;;;;;34.30;32.20;;;;;;;9.95;100.00;101817.69;1891264;74;86728;-70
2021/11/04 16:35:11;;;;;;;37.20;34.90;;;;;;;9.86;100.00;101824.23;1891746;74;39796;-72
2021/11/04 16:40:46;;;;;;;35.33;33.27;;;;;;;9.96;100.00;101841.58;1903711;74;86208;-72
2021/11/04 16:48:48;;;;;;;36.27;34.07;;;;;;;9.98;100.00;101848.53;1915275;75;86023;-70
2021/11/04 16:51:18;;;;;;;33.88;31.97;;;;;;;9.93;100.00;101851.78;1819235;77;936554;-69
2021/11/04 16:53:49;;;;;;;34.87;32.87;;;;;;;9.95;100.00;101860.16;1801067;78;938664;-69
2021/11/04 16:56:19;;;;;;;35.60;33.60;;;;;;;9.90;100.00;101862.02;1805375;77;938598;-70
2021/11/04 16:58:49;;;;;;;35.28;33.28;;;;;;;9.76;100.00;101858.77;1809140;77;938845;-74
2021/11/04 17:01:20;;;;;;;37.20;34.80;;;;;;;9.70;100.00;101865.89;1804922;77;938611;-68
2021/11/04 17:03:50;;;;;;;35.20;33.20;;;;;;;9.58;100.00;101864.04;1831154;77;938786;-71
2021/11/04 17:06:26;;;;;;;32.57;30.77;;;;;;;9.58;100.00;101870.16;1819218;77;938736;-71
2021/11/04 17:08:56;;;;;;;32.33;30.50;;;;;;;9.63;100.00;101870.80;1830339;77;938582;-71
2021/11/04 17:11:24;;;;;;;32.53;30.62;;;;;;;9.60;100.00;101879.90;1819045;77;938627;-69
2021/11/04 17:13:55;;;;;;;37.20;34.90;;;;;;;9.54;100.00;101893.38;1831238;77;937723;-68
2021/11/04 17:16:25;;;;;;;38.17;35.67;;;;;;;9.40;100.00;101899.53;1819145;77;937416;-68
2021/11/04 17:18:56;;;;;;;40.90;38.40;;;;;;;9.25;100.00;101895.95;1791587;77;936726;-69
2021/11/04 17:24:20;;;;;;;41.63;38.77;;;;;;;9.45;100.00;101907.95;1915349;74;39498;-70
2021/11/04 17:29:51;;;;;;;32.13;30.13;;;;;;;9.70;100.00;101919.45;1923118;73;86838;-67
2021/11/04 17:35:15;;;;;;;35.73;33.27;;;;;;;9.78;100.00;101923.18;1916089;74;39627;-71
2021/11/04 17:40:46;;;;;;;38.87;36.57;;;;;;;9.66;100.00;101936.31;1936870;71;86105;-70
2021/11/04 17:46:13;;;;;;;36.87;34.40;;;;;;;9.48;100.00;101939.33;1917095;74;39665;-72
2021/11/04 17:51:39;;;;;;;34.90;32.80;;;;;;;9.45;100.00;101950.94;1901764;75;86779;-69
2021/11/04 17:57:06;;;;;;;37.50;35.20;;;;;;;9.69;100.00;101955.77;1892529;74;39558;-70
2021/11/04 18:02:31;;;;;;;36.27;34.07;;;;;;;9.62;100.00;101956.48;1913473;74;39687;-72
2021/11/04 18:07:58;;;;;;;34.90;32.70;;;;;;;9.58;100.00;101960.31;1947349;71;86222;-72
2021/11/04 18:13:22;;;;;;;37.17;34.90;;;;;;;9.66;100.00;101964.05;1914970;74;39641;-71
2021/11/04 18:18:47;;;;;;;34.70;32.70;;;;;;;9.62;100.00;101973.13;1903623;74;87030;-71
2021/11/04 18:24:12;;;;;;;31.60;29.70;;;;;;;9.62;100.00;101976.75;1917132;74;39516;-75
2021/11/04 18:29:37;;;;;;;29.90;28.20;;;;;;;9.59;100.00;101984.16;1901893;73;85598;-72
2021/11/04 18:35:02;;;;;;;30.50;28.60;;;;;;;9.39;100.00;101987.97;1898577;74;86294;-74
2021/11/04 18:40:26;;;;;;;32.10;30.20;;;;;;;9.36;100.00;101995.41;1914403;74;39825;-77
2021/11/04 18:45:50;;;;;;;35.17;32.77;;;;;;;9.26;100.00;102007.15;1890563;74;86518;-72
2021/11/04 18:51:35;;;;;;;34.73;32.50;;;;;;;9.18;100.00;102008.09;1948455;73;86198;-72
2021/11/04 18:57:00;;;;;;;37.93;35.40;;;;;;;9.11;100.00;102009.64;1946138;71;86911;-72
2021/11/04 19:02:25;;;;;;;39.40;36.70;;;;;;;9.05;100.00;102026.70;1914473;74;39600;-72
2021/11/04 19:07:49;;;;;;;40.47;37.77;;;;;;;8.65;100.00;102039.69;1903142;74;86256;-72
2021/11/04 19:13:15;;;;;;;42.00;39.30;;;;;;;8.70;100.00;102035.65;1916706;74;39589;-73
2021/11/04 19:18:39;;;;;;;45.37;42.47;;;;;;;8.52;100.00;102040.80;1901686;73;86151;-73
2021/11/04 19:24:04;;;;;;;42.77;39.93;;;;;;;8.53;100.00;102048.02;1876301;74;39495;-74
2021/11/04 19:29:30;;;;;;;43.17;40.40;;;;;;;8.58;100.00;102048.68;1913911;74;39724;-72
2021/11/04 19:34:54;;;;;;;41.73;39.20;;;;;;;8.67;100.00;102050.00;1777271;80;86492;-73
2021/11/04 19:40:21;;;;;;;41.50;38.93;;;;;;;8.55;100.00;102058.87;1915623;74;39647;-71
2021/11/04 19:45:45;;;;;;;48.97;45.83;;;;;;;8.37;100.00;102066.76;1903697;74;84933;-71
2021/11/04 19:51:10;;;;;;;41.53;38.83;;;;;;;8.35;100.00;102078.60;1917226;74;39615;-71
2021/11/04 19:56:40;;;;;;;42.17;39.47;;;;;;;8.27;100.00;102083.08;1901662;73;86207;-71
2021/11/04 20:02:12;;;;;;;44.30;41.50;;;;;;;8.22;100.00;102099.02;1916951;74;39748;-73
2021/11/04 20:07:38;;;;;;;44.83;41.93;;;;;;;8.16;100.00;102105.53;1901819;73;85433;-72
2021/11/04 20:13:03;;;;;;;45.07;42.27;;;;;;;8.08;100.00;102103.12;1919306;74;39606;-74
2021/11/04 20:18:27;;;;;;;43.23;40.47;;;;;;;8.08;100.00;102110.58;1913934;74;39569;-73
2021/11/04 20:23:52;;;;;;;42.23;39.53;;;;;;;8.15;100.00;102118.22;1912636;73;86454;-77
2021/11/04 20:29:15;;;;;;;42.40;39.63;;;;;;;8.10;100.00;102124.47;1916209;74;39692;-72
2021/11/04 20:34:39;;;;;;;42.83;39.93;;;;;;;8.07;100.00;102133.79;1901654;75;85827;-72
2021/11/04 20:40:10;;;;;;;42.97;39.97;;;;;;;7.85;100.00;102132.64;1885348;74;39601;-78
2021/11/04 20:45:35;;;;;;;43.20;40.27;;;;;;;7.93;100.00;102137.83;1872048;75;86805;-73
2021/11/04 20:51:06;;;;;;;43.20;40.37;;;;;;;7.89;100.00;102140.77;1865795;76;86349;-73
2021/11/04 20:56:30;;;;;;;43.37;40.23;;;;;;;7.74;100.00;102143.42;1913310;74;39477;-73
2021/11/04 21:01:55;;;;;;;45.30;42.27;;;;;;;7.72;100.00;102154.42;1865221;76;86256;-73
2021/11/04 21:07:20;;;;;;;46.20;43.10;;;;;;;7.44;100.00;102152.27;1888082;74;39541;-72
2021/11/04 21:12:47;;;;;;;49.07;45.67;;;;;;;7.37;100.00;102155.64;1891483;74;86110;-79
2021/11/04 21:18:13;;;;;;;50.87;47.23;;;;;;;7.33;100.00;102162.17;1916567;74;39550;-72
2021/11/04 21:23:39;;;;;;;50.33;46.80;;;;;;;7.21;100.00;102157.66;1944249;72;86627;-70
2021/11/04 21:29:03;;;;;;;50.93;47.33;;;;;;;7.22;100.00;102164.34;1919185;74;39774;-70
2021/11/04 21:34:27;;;;;;;53.87;49.87;;;;;;;7.09;100.00;102173.32;1886157;74;39653;-72
2021/11/04 21:39:52;;;;;;;53.27;49.60;;;;;;;7.03;100.00;102189.42;1760582;80;86419;-72
2021/11/04 21:45:20;;;;;;;55.13;50.93;;;;;;;6.75;100.00;102185.80;1888923;74;39447;-73
2021/11/04 21:50:45;;;;;;;57.90;53.50;;;;;;;6.46;100.00;102198.35;1892420;74;85505;-73
2021/11/04 21:56:09;;;;;;;59.37;54.57;;;;;;;6.58;100.00;102202.63;1883181;74;39602;-76
2021/11/04 22:01:55;;;;;;;68.63;62.67;;;;;;;6.31;100.00;102212.50;1885243;73;86985;-72
2021/11/04 22:07:21;;;;;;;65.60;59.53;;;;;;;6.26;100.00;102227.50;1877687;74;39815;-72
2021/11/04 22:12:45;;;;;;;57.43;52.73;;;;;;;6.46;100.00;102225.95;1880262;74;86473;-70
2021/11/04 22:18:15;;;;;;;52.67;48.47;;;;;;;6.43;100.00;102234.69;1916274;74;39644;-72
2021/11/04 22:23:39;;;;;;;52.93;48.83;;;;;;;6.33;100.00;102239.89;1945101;73;85497;-73
2021/11/04 22:29:05;;;;;;;49.73;46.23;;;;;;;6.27;100.00;102247.66;1918773;74;39718;-74
2021/11/04 22:34:32;;;;;;;46.73;43.43;;;;;;;6.38;100.00;102250.54;1913206;74;40416;-73
2021/11/04 22:40:00;;;;;;;48.17;44.67;;;;;;;6.46;100.00;102258.27;1889519;74;86300;-73
2021/11/04 22:45:26;;;;;;;48.67;44.83;;;;;;;6.23;100.00;102262.44;1914188;74;39502;-72
2021/11/04 22:50:50;;;;;;;47.70;44.23;;;;;;;6.12;100.00;102270.59;1890632;74;86188;-74
2021/11/04 22:56:18;;;;;;;51.07;47.50;;;;;;;6.03;100.00;102273.28;1916122;74;39820;-73
2021/11/04 23:01:41;;;;;;;48.00;44.67;;;;;;;6.00;100.00;102269.56;1901688;73;86849;-73
2021/11/04 23:07:13;;;;;;;57.17;52.63;;;;;;;5.92;100.00;102285.31;1916621;73;39695;-72
2021/11/04 23:12:38;;;;;;;52.57;48.40;;;;;;;5.82;100.00;102289.55;1901686;74;85948;-72